sensor_id;sensor_type;location;lat;lon;timestamp;temperature;humidity
32895;DHT22;19251;49.484;8.260;2023-03-31T00:00:16;15.40;24.20
32895;DHT22;19251;49.484;8.260;2023-03-31T00:05:19;15.40;24.10
32895;DHT22;19251;49.484;8.260;2023-03-31T00:10:22;15.40;24.30
32895;DHT22;19251;49.484;8.260;2023-03-31T00:15:24;15.40;24.30
32895;DHT22;19251;49.484;8.260;2023-03-31T00:20:27;15.40;24.30
32895;DHT22;19251;49.484;8.260;2023-03-31T00:25:29;15.40;24.40
32895;DHT22;19251;49.484;8.260;2023-03-31T00:35:34;15.40;24.40
32895;DHT22;19251;49.484;8.260;2023-03-31T00:40:36;15.40;24.40
32895;DHT22;19251;49.484;8.260;2023-03-31T00:45:48;15.40;24.30
32895;DHT22;19251;49.484;8.260;2023-03-31T00:50:52;15.40;24.10
32895;DHT22;19251;49.484;8.260;2023-03-31T00:55:56;15.50;24.00
32895;DHT22;19251;49.484;8.260;2023-03-31T01:01:00;15.50;23.60
32895;DHT22;19251;49.484;8.260;2023-03-31T01:06:04;15.60;23.60
32895;DHT22;19251;49.484;8.260;2023-03-31T01:11:09;15.70;23.30
32895;DHT22;19251;49.484;8.260;2023-03-31T01:16:12;15.70;23.00
32895;DHT22;19251;49.484;8.260;2023-03-31T01:47:05;16.00;21.60
32895;DHT22;19251;49.484;8.260;2023-03-31T01:52:27;16.00;21.50
32895;DHT22;19251;49.484;8.260;2023-03-31T02:02:40;16.10;21.10
32895;DHT22;19251;49.484;8.260;2023-03-31T02:07:51;16.10;21.00
32895;DHT22;19251;49.484;8.260;2023-03-31T02:12:54;16.10;20.70
32895;DHT22;19251;49.484;8.260;2023-03-31T02:17:58;16.10;20.70
32895;DHT22;19251;49.484;8.260;2023-03-31T02:23:01;16.10;20.80
32895;DHT22;19251;49.484;8.260;2023-03-31T02:28:11;16.00;20.90
32895;DHT22;19251;49.484;8.260;2023-03-31T02:33:13;16.00;20.90
32895;DHT22;19251;49.484;8.260;2023-03-31T02:38:17;15.90;20.90
32895;DHT22;19251;49.484;8.260;2023-03-31T02:48:23;16.20;21.10
32895;DHT22;19251;49.484;8.260;2023-03-31T02:53:29;16.20;21.20
32895;DHT22;19251;49.484;8.260;2023-03-31T03:09:39;15.90;21.10
32895;DHT22;19251;49.484;8.260;2023-03-31T03:19:50;15.80;21.20
32895;DHT22;19251;49.484;8.260;2023-03-31T03:24:54;15.80;21.30
32895;DHT22;19251;49.484;8.260;2023-03-31T03:29:57;15.80;21.30
32895;DHT22;19251;49.484;8.260;2023-03-31T03:34:59;15.70;21.30
32895;DHT22;19251;49.484;8.260;2023-03-31T03:40:02;15.50;21.20
32895;DHT22;19251;49.484;8.260;2023-03-31T03:45:06;15.70;21.40
32895;DHT22;19251;49.484;8.260;2023-03-31T03:50:09;15.60;21.40
32895;DHT22;19251;49.484;8.260;2023-03-31T03:55:11;15.60;21.50
32895;DHT22;19251;49.484;8.260;2023-03-31T04:00:13;15.60;21.60
32895;DHT22;19251;49.484;8.260;2023-03-31T04:05:17;15.50;21.60
32895;DHT22;19251;49.484;8.260;2023-03-31T04:10:20;15.50;21.70
32895;DHT22;19251;49.484;8.260;2023-03-31T04:15:22;15.40;21.80
32895;DHT22;19251;49.484;8.260;2023-03-31T04:20:24;15.50;21.90
32895;DHT22;19251;49.484;8.260;2023-03-31T04:25:32;15.50;22.10
32895;DHT22;19251;49.484;8.260;2023-03-31T04:30:39;15.40;22.10
32895;DHT22;19251;49.484;8.260;2023-03-31T04:35:42;15.40;22.50
32895;DHT22;19251;49.484;8.260;2023-03-31T04:40:51;15.40;22.80
32895;DHT22;19251;49.484;8.260;2023-03-31T04:45:53;15.30;22.90
32895;DHT22;19251;49.484;8.260;2023-03-31T04:50:55;15.30;23.10
32895;DHT22;19251;49.484;8.260;2023-03-31T04:55:58;15.30;23.20
32895;DHT22;19251;49.484;8.260;2023-03-31T05:01:00;15.20;23.40
32895;DHT22;19251;49.484;8.260;2023-03-31T05:06:04;15.20;23.60
32895;DHT22;19251;49.484;8.260;2023-03-31T05:11:06;15.10;23.60
32895;DHT22;19251;49.484;8.260;2023-03-31T05:16:09;15.10;23.70
32895;DHT22;19251;49.484;8.260;2023-03-31T05:21:14;15.10;24.00
32895;DHT22;19251;49.484;8.260;2023-03-31T05:26:19;15.00;24.10
32895;DHT22;19251;49.484;8.260;2023-03-31T05:31:23;15.00;24.30
32895;DHT22;19251;49.484;8.260;2023-03-31T05:36:25;15.10;24.50
32895;DHT22;19251;49.484;8.260;2023-03-31T05:41:28;14.90;24.50
32895;DHT22;19251;49.484;8.260;2023-03-31T05:46:30;14.90;24.70
32895;DHT22;19251;49.484;8.260;2023-03-31T05:51:35;14.90;24.90
32895;DHT22;19251;49.484;8.260;2023-03-31T05:56:37;14.80;25.10
32895;DHT22;19251;49.484;8.260;2023-03-31T06:06:42;14.80;25.60
32895;DHT22;19251;49.484;8.260;2023-03-31T06:11:45;14.70;25.80
32895;DHT22;19251;49.484;8.260;2023-03-31T06:16:51;14.70;26.30
32895;DHT22;19251;49.484;8.260;2023-03-31T06:21:53;14.70;26.50
32895;DHT22;19251;49.484;8.260;2023-03-31T06:26:55;14.60;26.70
32895;DHT22;19251;49.484;8.260;2023-03-31T06:31:57;14.80;27.20
32895;DHT22;19251;49.484;8.260;2023-03-31T06:37:00;14.90;27.40
32895;DHT22;19251;49.484;8.260;2023-03-31T06:42:03;14.70;27.50
32895;DHT22;19251;49.484;8.260;2023-03-31T06:47:11;14.60;27.70
32895;DHT22;19251;49.484;8.260;2023-03-31T06:52:13;14.60;27.80
32895;DHT22;19251;49.484;8.260;2023-03-31T06:57:15;14.60;28.00
32895;DHT22;19251;49.484;8.260;2023-03-31T07:02:20;14.60;28.10
32895;DHT22;19251;49.484;8.260;2023-03-31T07:07:22;14.60;28.30
32895;DHT22;19251;49.484;8.260;2023-03-31T07:12:24;14.70;28.60
32895;DHT22;19251;49.484;8.260;2023-03-31T07:17:27;14.70;28.70
32895;DHT22;19251;49.484;8.260;2023-03-31T07:22:29;14.70;28.70
32895;DHT22;19251;49.484;8.260;2023-03-31T07:27:32;14.70;28.80
32895;DHT22;19251;49.484;8.260;2023-03-31T07:32:34;14.70;29.00
32895;DHT22;19251;49.484;8.260;2023-03-31T07:37:42;14.80;29.10
32895;DHT22;19251;49.484;8.260;2023-03-31T07:42:45;15.10;29.30
32895;DHT22;19251;49.484;8.260;2023-03-31T07:47:50;15.30;29.50
32895;DHT22;19251;49.484;8.260;2023-03-31T07:52:53;15.50;29.50
32895;DHT22;19251;49.484;8.260;2023-03-31T07:57:55;15.40;28.90
32895;DHT22;19251;49.484;8.260;2023-03-31T08:02:57;15.60;29.00
32895;DHT22;19251;49.484;8.260;2023-03-31T08:07:59;15.60;28.80
32895;DHT22;19251;49.484;8.260;2023-03-31T08:13:02;15.60;28.70
32895;DHT22;19251;49.484;8.260;2023-03-31T08:18:05;15.70;28.70
32895;DHT22;19251;49.484;8.260;2023-03-31T08:23:07;15.80;28.80
32895;DHT22;19251;49.484;8.260;2023-03-31T08:28:12;15.90;28.90
32895;DHT22;19251;49.484;8.260;2023-03-31T08:33:18;16.10;28.90
32895;DHT22;19251;49.484;8.260;2023-03-31T08:38:21;16.30;28.60
32895;DHT22;19251;49.484;8.260;2023-03-31T08:43:25;16.40;28.50
32895;DHT22;19251;49.484;8.260;2023-03-31T08:48:29;16.40;28.40
32895;DHT22;19251;49.484;8.260;2023-03-31T08:53:35;16.30;28.30
32895;DHT22;19251;49.484;8.260;2023-03-31T08:58:42;16.30;28.40
32895;DHT22;19251;49.484;8.260;2023-03-31T09:03:53;16.30;28.50
32895;DHT22;19251;49.484;8.260;2023-03-31T09:09:00;15.80;25.60
32895;DHT22;19251;49.484;8.260;2023-03-31T09:19:19;14.60;26.40
32895;DHT22;19251;49.484;8.260;2023-03-31T09:24:27;14.20;27.20
32895;DHT22;19251;49.484;8.260;2023-03-31T09:29:44;13.80;27.50
32895;DHT22;19251;49.484;8.260;2023-03-31T09:34:52;13.50;28.10
32895;DHT22;19251;49.484;8.260;2023-03-31T09:39:58;13.30;28.00
32895;DHT22;19251;49.484;8.260;2023-03-31T09:45:01;13.30;28.50
32895;DHT22;19251;49.484;8.260;2023-03-31T09:50:07;13.40;28.70
32895;DHT22;19251;49.484;8.260;2023-03-31T09:55:22;13.50;29.00
32895;DHT22;19251;49.484;8.260;2023-03-31T10:00:41;13.70;29.70
32895;DHT22;19251;49.484;8.260;2023-03-31T10:05:51;13.80;29.60
32895;DHT22;19251;49.484;8.260;2023-03-31T10:10:54;13.90;29.80
32895;DHT22;19251;49.484;8.260;2023-03-31T10:16:04;14.20;30.00
32895;DHT22;19251;49.484;8.260;2023-03-31T10:21:23;14.40;30.00
32895;DHT22;19251;49.484;8.260;2023-03-31T10:26:26;14.70;30.40
32895;DHT22;19251;49.484;8.260;2023-03-31T10:31:35;15.20;30.80
32895;DHT22;19251;49.484;8.260;2023-03-31T10:36:38;15.50;30.00
32895;DHT22;19251;49.484;8.260;2023-03-31T10:41:51;15.80;29.90
32895;DHT22;19251;49.484;8.260;2023-03-31T10:46:53;16.00;30.00
32895;DHT22;19251;49.484;8.260;2023-03-31T10:51:58;16.30;28.80
32895;DHT22;19251;49.484;8.260;2023-03-31T10:57:00;16.30;27.70
32895;DHT22;19251;49.484;8.260;2023-03-31T11:12:58;15.60;26.60
32895;DHT22;19251;49.484;8.260;2023-03-31T11:18:07;15.50;26.80
32895;DHT22;19251;49.484;8.260;2023-03-31T11:28:27;15.70;27.60
32895;DHT22;19251;49.484;8.260;2023-03-31T11:33:49;16.20;28.00
32895;DHT22;19251;49.484;8.260;2023-03-31T11:44:14;17.00;27.80
32895;DHT22;19251;49.484;8.260;2023-03-31T11:49:23;17.20;26.30
32895;DHT22;19251;49.484;8.260;2023-03-31T11:59:32;17.00;26.00
32895;DHT22;19251;49.484;8.260;2023-03-31T12:04:39;16.90;25.60
32895;DHT22;19251;49.484;8.260;2023-03-31T12:09:49;16.80;25.50
32895;DHT22;19251;49.484;8.260;2023-03-31T12:15:36;16.60;25.70
32895;DHT22;19251;49.484;8.260;2023-03-31T12:20:28;16.70;25.20
32895;DHT22;19251;49.484;8.260;2023-03-31T12:25:51;16.70;25.40
32895;DHT22;19251;49.484;8.260;2023-03-31T12:30:54;16.80;25.30
32895;DHT22;19251;49.484;8.260;2023-03-31T12:36:02;17.00;24.70
32895;DHT22;19251;49.484;8.260;2023-03-31T12:46:54;17.30;24.20
32895;DHT22;19251;49.484;8.260;2023-03-31T13:07:12;18.00;22.30
32895;DHT22;19251;49.484;8.260;2023-03-31T13:12:29;18.10;22.10
32895;DHT22;19251;49.484;8.260;2023-03-31T13:17:34;18.20;21.90
32895;DHT22;19251;49.484;8.260;2023-03-31T13:22:44;18.40;21.60
32895;DHT22;19251;49.484;8.260;2023-03-31T13:27:49;18.50;21.00
32895;DHT22;19251;49.484;8.260;2023-03-31T13:33:07;18.50;20.00
32895;DHT22;19251;49.484;8.260;2023-03-31T13:43:24;18.60;19.80
32895;DHT22;19251;49.484;8.260;2023-03-31T13:53:48;18.20;19.50
32895;DHT22;19251;49.484;8.260;2023-03-31T13:59:09;17.90;18.30
32895;DHT22;19251;49.484;8.260;2023-03-31T14:09:36;17.30;18.90
32895;DHT22;19251;49.484;8.260;2023-03-31T14:14:39;17.20;19.30
32895;DHT22;19251;49.484;8.260;2023-03-31T14:29:55;18.40;20.70
32895;DHT22;19251;49.484;8.260;2023-03-31T14:35:21;19.00;20.10
32895;DHT22;19251;49.484;8.260;2023-03-31T14:40:27;19.60;20.10
32895;DHT22;19251;49.484;8.260;2023-03-31T14:45:29;20.10;19.90
32895;DHT22;19251;49.484;8.260;2023-03-31T14:50:35;20.60;18.70
32895;DHT22;19251;49.484;8.260;2023-03-31T14:55:37;20.60;19.30
32895;DHT22;19251;49.484;8.260;2023-03-31T15:00:58;19.90;17.30
32895;DHT22;19251;49.484;8.260;2023-03-31T15:06:01;19.70;17.70
32895;DHT22;19251;49.484;8.260;2023-03-31T15:11:05;19.20;18.50
32895;DHT22;19251;49.484;8.260;2023-03-31T15:21:35;19.00;19.40
32895;DHT22;19251;49.484;8.260;2023-03-31T15:26:45;19.10;19.00
32895;DHT22;19251;49.484;8.260;2023-03-31T15:31:49;19.30;19.50
32895;DHT22;19251;49.484;8.260;2023-03-31T15:36:54;19.40;18.90
32895;DHT22;19251;49.484;8.260;2023-03-31T15:41:59;19.20;18.40
32895;DHT22;19251;49.484;8.260;2023-03-31T15:47:06;19.10;18.60
32895;DHT22;19251;49.484;8.260;2023-03-31T15:52:18;19.10;18.30
32895;DHT22;19251;49.484;8.260;2023-03-31T15:57:22;18.90;18.10
32895;DHT22;19251;49.484;8.260;2023-03-31T16:02:38;18.70;18.10
32895;DHT22;19251;49.484;8.260;2023-03-31T16:07:43;18.50;18.10
32895;DHT22;19251;49.484;8.260;2023-03-31T16:17:52;18.00;18.10
32895;DHT22;19251;49.484;8.260;2023-03-31T16:22:55;17.70;18.50
32895;DHT22;19251;49.484;8.260;2023-03-31T16:28:00;17.70;18.80
32895;DHT22;19251;49.484;8.260;2023-03-31T16:33:12;17.50;18.90
32895;DHT22;19251;49.484;8.260;2023-03-31T16:38:15;17.30;18.80
32895;DHT22;19251;49.484;8.260;2023-03-31T16:43:19;17.30;18.80
32895;DHT22;19251;49.484;8.260;2023-03-31T16:48:22;17.20;18.70
32895;DHT22;19251;49.484;8.260;2023-03-31T16:53:26;17.10;18.60
32895;DHT22;19251;49.484;8.260;2023-03-31T16:58:36;16.90;18.60
32895;DHT22;19251;49.484;8.260;2023-03-31T17:03:38;16.90;18.50
32895;DHT22;19251;49.484;8.260;2023-03-31T17:08:43;16.70;18.30
32895;DHT22;19251;49.484;8.260;2023-03-31T17:13:45;16.60;18.50
32895;DHT22;19251;49.484;8.260;2023-03-31T17:18:49;16.50;18.60
32895;DHT22;19251;49.484;8.260;2023-03-31T17:23:51;16.60;18.60
32895;DHT22;19251;49.484;8.260;2023-03-31T17:28:54;16.40;18.70
32895;DHT22;19251;49.484;8.260;2023-03-31T17:33:56;16.30;18.20
32895;DHT22;19251;49.484;8.260;2023-03-31T17:38:58;16.30;18.50
32895;DHT22;19251;49.484;8.260;2023-03-31T17:44:02;16.20;18.40
32895;DHT22;19251;49.484;8.260;2023-03-31T17:54:11;16.00;18.30
32895;DHT22;19251;49.484;8.260;2023-03-31T17:59:13;15.90;18.50
32895;DHT22;19251;49.484;8.260;2023-03-31T18:04:15;15.80;18.70
32895;DHT22;19251;49.484;8.260;2023-03-31T18:09:18;15.70;18.80
32895;DHT22;19251;49.484;8.260;2023-03-31T18:14:21;15.60;18.90
32895;DHT22;19251;49.484;8.260;2023-03-31T18:19:23;15.60;19.10
32895;DHT22;19251;49.484;8.260;2023-03-31T18:24:25;15.50;19.20
32895;DHT22;19251;49.484;8.260;2023-03-31T18:29:28;15.50;19.20
32895;DHT22;19251;49.484;8.260;2023-03-31T18:34:30;15.50;19.30
32895;DHT22;19251;49.484;8.260;2023-03-31T18:39:34;15.50;19.40
32895;DHT22;19251;49.484;8.260;2023-03-31T18:44:36;15.50;19.50
32895;DHT22;19251;49.484;8.260;2023-03-31T18:49:40;15.50;19.60
32895;DHT22;19251;49.484;8.260;2023-03-31T18:54:42;15.50;19.80
32895;DHT22;19251;49.484;8.260;2023-03-31T18:59:44;15.50;19.80
32895;DHT22;19251;49.484;8.260;2023-03-31T19:04:46;15.40;20.30
32895;DHT22;19251;49.484;8.260;2023-03-31T19:09:49;15.40;20.60
32895;DHT22;19251;49.484;8.260;2023-03-31T19:14:52;15.30;20.60
32895;DHT22;19251;49.484;8.260;2023-03-31T19:19:54;15.10;20.90
32895;DHT22;19251;49.484;8.260;2023-03-31T19:24:56;15.00;21.10
32895;DHT22;19251;49.484;8.260;2023-03-31T19:29:58;14.90;21.20
32895;DHT22;19251;49.484;8.260;2023-03-31T19:35:00;14.70;21.50
32895;DHT22;19251;49.484;8.260;2023-03-31T19:40:05;14.60;21.70
32895;DHT22;19251;49.484;8.260;2023-03-31T19:45:08;14.50;21.80
32895;DHT22;19251;49.484;8.260;2023-03-31T19:50:10;14.50;22.00
32895;DHT22;19251;49.484;8.260;2023-03-31T19:55:14;14.40;22.10
32895;DHT22;19251;49.484;8.260;2023-03-31T20:00:18;14.30;22.20
32895;DHT22;19251;49.484;8.260;2023-03-31T20:05:20;14.20;22.20
32895;DHT22;19251;49.484;8.260;2023-03-31T20:10:22;14.20;22.40
32895;DHT22;19251;49.484;8.260;2023-03-31T20:15:25;14.20;22.40
32895;DHT22;19251;49.484;8.260;2023-03-31T20:20:27;14.20;22.60
32895;DHT22;19251;49.484;8.260;2023-03-31T20:25:29;14.10;22.50
32895;DHT22;19251;49.484;8.260;2023-03-31T20:30:32;14.20;22.60
32895;DHT22;19251;49.484;8.260;2023-03-31T20:35:34;14.20;22.60
32895;DHT22;19251;49.484;8.260;2023-03-31T20:40:37;14.10;22.50
32895;DHT22;19251;49.484;8.260;2023-03-31T20:45:41;14.10;22.50
32895;DHT22;19251;49.484;8.260;2023-03-31T20:50:43;14.10;22.50
32895;DHT22;19251;49.484;8.260;2023-03-31T20:55:45;14.10;22.50
32895;DHT22;19251;49.484;8.260;2023-03-31T21:05:50;14.10;22.50
32895;DHT22;19251;49.484;8.260;2023-03-31T21:10:53;14.10;22.50
32895;DHT22;19251;49.484;8.260;2023-03-31T21:15:55;14.00;22.50
32895;DHT22;19251;49.484;8.260;2023-03-31T21:21:00;14.00;22.60
32895;DHT22;19251;49.484;8.260;2023-03-31T21:26:04;14.00;22.40
32895;DHT22;19251;49.484;8.260;2023-03-31T21:31:08;17.30;25.00
32895;DHT22;19251;49.484;8.260;2023-03-31T21:36:14;14.00;22.50
32895;DHT22;19251;49.484;8.260;2023-03-31T21:41:19;14.10;22.50
32895;DHT22;19251;49.484;8.260;2023-03-31T21:46:22;14.10;22.50
32895;DHT22;19251;49.484;8.260;2023-03-31T21:51:25;14.10;22.20
32895;DHT22;19251;49.484;8.260;2023-03-31T21:56:28;14.10;22.30
32895;DHT22;19251;49.484;8.260;2023-03-31T22:01:33;14.10;22.20
32895;DHT22;19251;49.484;8.260;2023-03-31T22:06:36;14.20;22.00
32895;DHT22;19251;49.484;8.260;2023-03-31T22:11:40;14.20;21.90
32895;DHT22;19251;49.484;8.260;2023-03-31T22:16:42;14.30;21.90
32895;DHT22;19251;49.484;8.260;2023-03-31T22:21:44;15.20;22.20
32895;DHT22;19251;49.484;8.260;2023-03-31T22:26:46;14.30;21.40
32895;DHT22;19251;49.484;8.260;2023-03-31T22:31:49;14.30;21.50
32895;DHT22;19251;49.484;8.260;2023-03-31T22:36:51;14.30;21.50
32895;DHT22;19251;49.484;8.260;2023-03-31T22:41:53;14.30;21.50
32895;DHT22;19251;49.484;8.260;2023-03-31T22:46:55;14.30;21.50
32895;DHT22;19251;49.484;8.260;2023-03-31T22:51:58;14.30;21.50
32895;DHT22;19251;49.484;8.260;2023-03-31T23:02:03;14.10;21.30
32895;DHT22;19251;49.484;8.260;2023-03-31T23:07:06;14.20;21.50
32895;DHT22;19251;49.484;8.260;2023-03-31T23:12:08;14.20;21.50
32895;DHT22;19251;49.484;8.260;2023-03-31T23:17:10;14.10;21.30
32895;DHT22;19251;49.484;8.260;2023-03-31T23:22:13;14.00;21.20
32895;DHT22;19251;49.484;8.260;2023-03-31T23:27:15;14.10;21.20
32895;DHT22;19251;49.484;8.260;2023-03-31T23:32:17;14.10;21.10
32895;DHT22;19251;49.484;8.260;2023-03-31T23:42:28;14.20;21.20
32895;DHT22;19251;49.484;8.260;2023-03-31T23:47:43;14.00;21.00
32895;DHT22;19251;49.484;8.260;2023-03-31T23:52:45;14.00;21.10
32895;DHT22;19251;49.484;8.260;2023-03-31T23:57:48;13.90;21.00
